sensor_id;sensor_type;location;lat;lon;timestamp;P1;durP1;ratioP1;P2;durP2;ratioP2
17566;SDS011;8901;52.088;5.084;2022-08-21T00:00:04;13.20;;;12.02;;
17566;SDS011;8901;52.088;5.084;2022-08-21T00:02:32;10.07;;;9.18;;
17566;SDS011;8901;52.088;5.084;2022-08-21T00:04:59;12.68;;;11.60;;
17566;SDS011;8901;52.088;5.084;2022-08-21T00:07:26;14.57;;;13.55;;
17566;SDS011;8901;52.088;5.084;2022-08-21T00:09:53;13.50;;;12.30;;
17566;SDS011;8901;52.088;5.084;2022-08-21T00:12:23;12.48;;;11.48;;
17566;SDS011;8901;52.088;5.084;2022-08-21T00:14:51;12.27;;;11.25;;
17566;SDS011;8901;52.088;5.084;2022-08-21T00:17:18;12.85;;;11.00;;
17566;SDS011;8901;52.088;5.084;2022-08-21T00:19:46;12.93;;;12.02;;
17566;SDS011;8901;52.088;5.084;2022-08-21T00:22:13;12.55;;;11.52;;
17566;SDS011;8901;52.088;5.084;2022-08-21T00:24:40;10.23;;;9.32;;
17566;SDS011;8901;52.088;5.084;2022-08-21T00:27:07;12.95;;;11.82;;
17566;SDS011;8901;52.088;5.084;2022-08-21T00:29:34;12.48;;;11.48;;
17566;SDS011;8901;52.088;5.084;2022-08-21T00:32:02;12.70;;;11.60;;
17566;SDS011;8901;52.088;5.084;2022-08-21T00:34:29;11.23;;;10.43;;
17566;SDS011;8901;52.088;5.084;2022-08-21T00:36:56;12.32;;;11.35;;
17566;SDS011;8901;52.088;5.084;2022-08-21T00:39:23;12.38;;;11.48;;
17566;SDS011;8901;52.088;5.084;2022-08-21T00:41:50;10.82;;;9.90;;
17566;SDS011;8901;52.088;5.084;2022-08-21T00:44:17;11.77;;;10.70;;
17566;SDS011;8901;52.088;5.084;2022-08-21T00:46:45;11.45;;;10.43;;
17566;SDS011;8901;52.088;5.084;2022-08-21T00:49:13;10.88;;;9.80;;
17566;SDS011;8901;52.088;5.084;2022-08-21T00:51:42;11.52;;;10.52;;
17566;SDS011;8901;52.088;5.084;2022-08-21T00:54:11;9.65;;;8.65;;
17566;SDS011;8901;52.088;5.084;2022-08-21T00:56:39;57.83;;;34.85;;
17566;SDS011;8901;52.088;5.084;2022-08-21T00:59:06;12.73;;;11.57;;
17566;SDS011;8901;52.088;5.084;2022-08-21T01:01:34;13.25;;;11.52;;
17566;SDS011;8901;52.088;5.084;2022-08-21T01:04:01;14.07;;;10.80;;
17566;SDS011;8901;52.088;5.084;2022-08-21T01:06:30;11.90;;;10.68;;
17566;SDS011;8901;52.088;5.084;2022-08-21T01:08:57;10.77;;;9.68;;
17566;SDS011;8901;52.088;5.084;2022-08-21T01:11:24;13.00;;;11.90;;
17566;SDS011;8901;52.088;5.084;2022-08-21T01:13:51;9.93;;;9.00;;
17566;SDS011;8901;52.088;5.084;2022-08-21T01:16:22;11.10;;;9.38;;
17566;SDS011;8901;52.088;5.084;2022-08-21T01:18:50;11.75;;;10.65;;
17566;SDS011;8901;52.088;5.084;2022-08-21T01:21:22;10.32;;;9.45;;
17566;SDS011;8901;52.088;5.084;2022-08-21T01:23:52;11.18;;;10.10;;
17566;SDS011;8901;52.088;5.084;2022-08-21T01:26:21;10.57;;;9.60;;
17566;SDS011;8901;52.088;5.084;2022-08-21T01:28:52;10.50;;;9.70;;
17566;SDS011;8901;52.088;5.084;2022-08-21T01:31:27;11.00;;;10.20;;
17566;SDS011;8901;52.088;5.084;2022-08-21T01:33:56;10.40;;;9.60;;
17566;SDS011;8901;52.088;5.084;2022-08-21T01:36:25;10.13;;;9.32;;
17566;SDS011;8901;52.088;5.084;2022-08-21T01:38:52;12.20;;;11.10;;
17566;SDS011;8901;52.088;5.084;2022-08-21T01:41:19;11.65;;;10.65;;
17566;SDS011;8901;52.088;5.084;2022-08-21T01:43:46;10.77;;;9.82;;
17566;SDS011;8901;52.088;5.084;2022-08-21T01:46:13;12.10;;;10.95;;
17566;SDS011;8901;52.088;5.084;2022-08-21T01:48:40;12.65;;;10.73;;
17566;SDS011;8901;52.088;5.084;2022-08-21T01:51:08;9.90;;;9.07;;
17566;SDS011;8901;52.088;5.084;2022-08-21T01:53:37;9.77;;;8.88;;
17566;SDS011;8901;52.088;5.084;2022-08-21T01:56:06;12.07;;;10.20;;
17566;SDS011;8901;52.088;5.084;2022-08-21T01:58:35;10.07;;;9.07;;
17566;SDS011;8901;52.088;5.084;2022-08-21T02:01:02;10.00;;;8.77;;
17566;SDS011;8901;52.088;5.084;2022-08-21T02:03:30;11.35;;;9.32;;
17566;SDS011;8901;52.088;5.084;2022-08-21T02:05:57;10.60;;;9.77;;
17566;SDS011;8901;52.088;5.084;2022-08-21T02:08:23;10.55;;;9.57;;
17566;SDS011;8901;52.088;5.084;2022-08-21T02:10:52;10.57;;;8.20;;
17566;SDS011;8901;52.088;5.084;2022-08-21T02:13:19;10.60;;;9.60;;
17566;SDS011;8901;52.088;5.084;2022-08-21T02:15:46;8.50;;;7.60;;
17566;SDS011;8901;52.088;5.084;2022-08-21T02:18:13;10.80;;;9.40;;
17566;SDS011;8901;52.088;5.084;2022-08-21T02:20:42;9.15;;;8.30;;
17566;SDS011;8901;52.088;5.084;2022-08-21T02:23:11;10.35;;;9.32;;
17566;SDS011;8901;52.088;5.084;2022-08-21T02:25:39;10.13;;;9.07;;
17566;SDS011;8901;52.088;5.084;2022-08-21T02:28:09;9.57;;;8.68;;
17566;SDS011;8901;52.088;5.084;2022-08-21T02:30:38;8.25;;;7.55;;
17566;SDS011;8901;52.088;5.084;2022-08-21T02:33:07;10.88;;;9.25;;
17566;SDS011;8901;52.088;5.084;2022-08-21T02:35:35;8.98;;;8.18;;
17566;SDS011;8901;52.088;5.084;2022-08-21T02:38:03;10.95;;;10.07;;
17566;SDS011;8901;52.088;5.084;2022-08-21T02:40:33;10.13;;;9.15;;
17566;SDS011;8901;52.088;5.084;2022-08-21T02:43:02;10.18;;;9.30;;
17566;SDS011;8901;52.088;5.084;2022-08-21T02:45:31;9.25;;;8.25;;
17566;SDS011;8901;52.088;5.084;2022-08-21T02:48:00;9.60;;;8.77;;
17566;SDS011;8901;52.088;5.084;2022-08-21T02:50:30;11.63;;;9.20;;
17566;SDS011;8901;52.088;5.084;2022-08-21T02:52:58;11.75;;;10.27;;
17566;SDS011;8901;52.088;5.084;2022-08-21T02:55:26;10.82;;;9.48;;
17566;SDS011;8901;52.088;5.084;2022-08-21T02:57:55;11.95;;;9.70;;
17566;SDS011;8901;52.088;5.084;2022-08-21T03:00:26;11.65;;;9.32;;
17566;SDS011;8901;52.088;5.084;2022-08-21T03:02:56;10.80;;;9.88;;
17566;SDS011;8901;52.088;5.084;2022-08-21T03:05:24;12.65;;;10.38;;
17566;SDS011;8901;52.088;5.084;2022-08-21T03:07:53;10.30;;;9.20;;
17566;SDS011;8901;52.088;5.084;2022-08-21T03:10:21;9.50;;;8.63;;
17566;SDS011;8901;52.088;5.084;2022-08-21T03:12:48;10.98;;;9.35;;
17566;SDS011;8901;52.088;5.084;2022-08-21T03:15:16;12.85;;;9.95;;
17566;SDS011;8901;52.088;5.084;2022-08-21T03:17:45;10.20;;;9.20;;
17566;SDS011;8901;52.088;5.084;2022-08-21T03:20:15;9.55;;;8.75;;
17566;SDS011;8901;52.088;5.084;2022-08-21T03:22:43;9.82;;;8.82;;
17566;SDS011;8901;52.088;5.084;2022-08-21T03:25:10;10.07;;;9.13;;
17566;SDS011;8901;52.088;5.084;2022-08-21T03:27:37;10.70;;;9.70;;
17566;SDS011;8901;52.088;5.084;2022-08-21T03:30:05;13.55;;;10.18;;
17566;SDS011;8901;52.088;5.084;2022-08-21T03:32:33;10.70;;;9.90;;
17566;SDS011;8901;52.088;5.084;2022-08-21T03:35:00;10.75;;;9.85;;
17566;SDS011;8901;52.088;5.084;2022-08-21T03:37:28;12.05;;;10.45;;
17566;SDS011;8901;52.088;5.084;2022-08-21T03:39:55;15.63;;;11.30;;
17566;SDS011;8901;52.088;5.084;2022-08-21T03:42:22;12.27;;;11.07;;
17566;SDS011;8901;52.088;5.084;2022-08-21T03:44:49;13.02;;;11.70;;
17566;SDS011;8901;52.088;5.084;2022-08-21T03:47:16;12.63;;;10.80;;
17566;SDS011;8901;52.088;5.084;2022-08-21T03:49:49;12.05;;;11.10;;
17566;SDS011;8901;52.088;5.084;2022-08-21T03:52:17;12.52;;;11.27;;
17566;SDS011;8901;52.088;5.084;2022-08-21T03:55:00;14.07;;;11.18;;
17566;SDS011;8901;52.088;5.084;2022-08-21T03:57:27;12.43;;;11.13;;
17566;SDS011;8901;52.088;5.084;2022-08-21T03:59:53;12.68;;;11.40;;
17566;SDS011;8901;52.088;5.084;2022-08-21T04:02:21;12.40;;;11.23;;
17566;SDS011;8901;52.088;5.084;2022-08-21T04:04:48;12.25;;;11.05;;
17566;SDS011;8901;52.088;5.084;2022-08-21T04:07:14;14.38;;;10.88;;
17566;SDS011;8901;52.088;5.084;2022-08-21T04:09:42;12.63;;;11.23;;
17566;SDS011;8901;52.088;5.084;2022-08-21T04:12:11;12.30;;;10.55;;
17566;SDS011;8901;52.088;5.084;2022-08-21T04:14:38;13.07;;;11.77;;
17566;SDS011;8901;52.088;5.084;2022-08-21T04:17:06;13.10;;;10.95;;
17566;SDS011;8901;52.088;5.084;2022-08-21T04:19:33;12.35;;;10.90;;
17566;SDS011;8901;52.088;5.084;2022-08-21T04:22:00;11.90;;;10.70;;
17566;SDS011;8901;52.088;5.084;2022-08-21T04:24:27;12.43;;;10.93;;
17566;SDS011;8901;52.088;5.084;2022-08-21T04:26:54;14.77;;;11.60;;
17566;SDS011;8901;52.088;5.084;2022-08-21T04:29:22;13.13;;;11.23;;
17566;SDS011;8901;52.088;5.084;2022-08-21T04:31:49;12.20;;;11.00;;
17566;SDS011;8901;52.088;5.084;2022-08-21T04:34:24;12.27;;;10.90;;
17566;SDS011;8901;52.088;5.084;2022-08-21T04:36:51;12.73;;;10.27;;
17566;SDS011;8901;52.088;5.084;2022-08-21T04:39:18;12.63;;;11.45;;
17566;SDS011;8901;52.088;5.084;2022-08-21T04:41:45;14.50;;;11.50;;
17566;SDS011;8901;52.088;5.084;2022-08-21T04:44:11;13.48;;;12.27;;
17566;SDS011;8901;52.088;5.084;2022-08-21T04:46:39;12.45;;;11.00;;
17566;SDS011;8901;52.088;5.084;2022-08-21T04:49:07;13.00;;;12.00;;
17566;SDS011;8901;52.088;5.084;2022-08-21T04:51:35;13.90;;;12.60;;
17566;SDS011;8901;52.088;5.084;2022-08-21T04:54:07;13.23;;;12.13;;
17566;SDS011;8901;52.088;5.084;2022-08-21T04:56:39;13.73;;;12.40;;
17566;SDS011;8901;52.088;5.084;2022-08-21T04:59:11;13.95;;;12.50;;
17566;SDS011;8901;52.088;5.084;2022-08-21T05:01:43;13.48;;;11.93;;
17566;SDS011;8901;52.088;5.084;2022-08-21T05:04:11;14.27;;;12.02;;
17566;SDS011;8901;52.088;5.084;2022-08-21T05:06:41;14.07;;;12.30;;
17566;SDS011;8901;52.088;5.084;2022-08-21T05:09:12;13.40;;;12.30;;
17566;SDS011;8901;52.088;5.084;2022-08-21T05:11:40;12.88;;;11.77;;
17566;SDS011;8901;52.088;5.084;2022-08-21T05:14:09;13.50;;;12.20;;
17566;SDS011;8901;52.088;5.084;2022-08-21T05:16:36;13.02;;;11.80;;
17566;SDS011;8901;52.088;5.084;2022-08-21T05:19:05;12.68;;;11.52;;
17566;SDS011;8901;52.088;5.084;2022-08-21T05:21:32;13.73;;;12.18;;
17566;SDS011;8901;52.088;5.084;2022-08-21T05:24:00;12.63;;;11.35;;
17566;SDS011;8901;52.088;5.084;2022-08-21T05:26:27;13.20;;;12.05;;
17566;SDS011;8901;52.088;5.084;2022-08-21T05:28:54;12.52;;;11.40;;
17566;SDS011;8901;52.088;5.084;2022-08-21T05:31:21;13.93;;;11.80;;
17566;SDS011;8901;52.088;5.084;2022-08-21T05:33:49;13.15;;;11.77;;
17566;SDS011;8901;52.088;5.084;2022-08-21T05:36:17;13.35;;;12.07;;
17566;SDS011;8901;52.088;5.084;2022-08-21T05:38:50;12.73;;;11.52;;
17566;SDS011;8901;52.088;5.084;2022-08-21T05:41:18;12.38;;;11.18;;
17566;SDS011;8901;52.088;5.084;2022-08-21T05:43:45;18.50;;;12.30;;
17566;SDS011;8901;52.088;5.084;2022-08-21T05:46:12;11.75;;;10.60;;
17566;SDS011;8901;52.088;5.084;2022-08-21T05:48:39;12.77;;;11.48;;
17566;SDS011;8901;52.088;5.084;2022-08-21T05:51:07;11.98;;;10.70;;
17566;SDS011;8901;52.088;5.084;2022-08-21T05:53:37;12.65;;;11.05;;
17566;SDS011;8901;52.088;5.084;2022-08-21T05:56:07;11.85;;;10.60;;
17566;SDS011;8901;52.088;5.084;2022-08-21T05:58:34;17.52;;;11.60;;
17566;SDS011;8901;52.088;5.084;2022-08-21T06:01:07;13.52;;;10.98;;
17566;SDS011;8901;52.088;5.084;2022-08-21T06:03:35;11.20;;;10.07;;
17566;SDS011;8901;52.088;5.084;2022-08-21T06:06:04;16.00;;;11.10;;
17566;SDS011;8901;52.088;5.084;2022-08-21T06:08:31;14.57;;;12.75;;
17566;SDS011;8901;52.088;5.084;2022-08-21T06:11:01;13.25;;;12.23;;
17566;SDS011;8901;52.088;5.084;2022-08-21T06:13:29;16.88;;;13.68;;
17566;SDS011;8901;52.088;5.084;2022-08-21T06:16:03;16.20;;;13.88;;
17566;SDS011;8901;52.088;5.084;2022-08-21T06:18:32;15.43;;;13.82;;
17566;SDS011;8901;52.088;5.084;2022-08-21T06:20:59;14.85;;;13.35;;
17566;SDS011;8901;52.088;5.084;2022-08-21T06:23:26;19.10;;;13.75;;
17566;SDS011;8901;52.088;5.084;2022-08-21T06:25:53;15.35;;;13.75;;
17566;SDS011;8901;52.088;5.084;2022-08-21T06:28:22;15.05;;;13.75;;
17566;SDS011;8901;52.088;5.084;2022-08-21T06:30:49;15.90;;;14.52;;
17566;SDS011;8901;52.088;5.084;2022-08-21T06:33:15;16.15;;;14.57;;
17566;SDS011;8901;52.088;5.084;2022-08-21T06:35:42;16.05;;;14.40;;
17566;SDS011;8901;52.088;5.084;2022-08-21T06:38:09;16.08;;;14.20;;
17566;SDS011;8901;52.088;5.084;2022-08-21T06:40:37;15.82;;;14.32;;
17566;SDS011;8901;52.088;5.084;2022-08-21T06:43:05;19.00;;;15.20;;
17566;SDS011;8901;52.088;5.084;2022-08-21T06:45:35;19.00;;;14.52;;
17566;SDS011;8901;52.088;5.084;2022-08-21T06:48:02;16.75;;;14.10;;
17566;SDS011;8901;52.088;5.084;2022-08-21T06:50:31;15.88;;;14.30;;
17566;SDS011;8901;52.088;5.084;2022-08-21T06:52:59;19.35;;;14.57;;
17566;SDS011;8901;52.088;5.084;2022-08-21T06:55:28;16.40;;;15.00;;
17566;SDS011;8901;52.088;5.084;2022-08-21T06:57:55;17.15;;;14.80;;
17566;SDS011;8901;52.088;5.084;2022-08-21T07:00:22;16.60;;;14.13;;
17566;SDS011;8901;52.088;5.084;2022-08-21T07:02:51;16.83;;;14.13;;
17566;SDS011;8901;52.088;5.084;2022-08-21T07:05:17;20.40;;;14.05;;
17566;SDS011;8901;52.088;5.084;2022-08-21T07:07:44;15.23;;;13.82;;
17566;SDS011;8901;52.088;5.084;2022-08-21T07:10:12;15.00;;;13.63;;
17566;SDS011;8901;52.088;5.084;2022-08-21T07:12:39;15.90;;;14.50;;
17566;SDS011;8901;52.088;5.084;2022-08-21T07:15:06;15.75;;;14.20;;
17566;SDS011;8901;52.088;5.084;2022-08-21T07:17:34;16.45;;;14.82;;
17566;SDS011;8901;52.088;5.084;2022-08-21T07:20:02;15.57;;;14.18;;
17566;SDS011;8901;52.088;5.084;2022-08-21T07:22:30;15.80;;;14.20;;
17566;SDS011;8901;52.088;5.084;2022-08-21T07:24:57;16.45;;;14.70;;
17566;SDS011;8901;52.088;5.084;2022-08-21T07:27:24;15.18;;;13.63;;
17566;SDS011;8901;52.088;5.084;2022-08-21T07:29:52;15.20;;;13.75;;
17566;SDS011;8901;52.088;5.084;2022-08-21T07:32:19;15.85;;;13.50;;
17566;SDS011;8901;52.088;5.084;2022-08-21T07:34:46;16.48;;;13.15;;
17566;SDS011;8901;52.088;5.084;2022-08-21T07:37:15;18.67;;;11.43;;
17566;SDS011;8901;52.088;5.084;2022-08-21T07:39:42;14.70;;;11.32;;
17566;SDS011;8901;52.088;5.084;2022-08-21T07:42:09;18.20;;;13.52;;
17566;SDS011;8901;52.088;5.084;2022-08-21T07:44:36;17.70;;;13.48;;
17566;SDS011;8901;52.088;5.084;2022-08-21T07:47:03;14.75;;;13.35;;
17566;SDS011;8901;52.088;5.084;2022-08-21T07:49:30;19.52;;;13.10;;
17566;SDS011;8901;52.088;5.084;2022-08-21T07:51:57;16.48;;;12.15;;
17566;SDS011;8901;52.088;5.084;2022-08-21T07:54:26;13.40;;;11.63;;
17566;SDS011;8901;52.088;5.084;2022-08-21T07:56:53;14.68;;;12.48;;
17566;SDS011;8901;52.088;5.084;2022-08-21T07:59:20;14.90;;;12.95;;
17566;SDS011;8901;52.088;5.084;2022-08-21T08:01:47;14.30;;;11.27;;
17566;SDS011;8901;52.088;5.084;2022-08-21T08:04:14;16.52;;;12.80;;
17566;SDS011;8901;52.088;5.084;2022-08-21T08:06:41;17.98;;;10.82;;
17566;SDS011;8901;52.088;5.084;2022-08-21T08:09:08;12.57;;;11.30;;
17566;SDS011;8901;52.088;5.084;2022-08-21T08:11:36;14.02;;;11.10;;
17566;SDS011;8901;52.088;5.084;2022-08-21T08:14:08;13.82;;;12.32;;
17566;SDS011;8901;52.088;5.084;2022-08-21T08:16:36;15.88;;;11.20;;
17566;SDS011;8901;52.088;5.084;2022-08-21T08:19:03;13.95;;;9.63;;
17566;SDS011;8901;52.088;5.084;2022-08-21T08:21:30;10.90;;;9.43;;
17566;SDS011;8901;52.088;5.084;2022-08-21T08:23:58;13.48;;;8.32;;
17566;SDS011;8901;52.088;5.084;2022-08-21T08:26:25;16.23;;;8.32;;
17566;SDS011;8901;52.088;5.084;2022-08-21T08:28:53;18.50;;;8.57;;
17566;SDS011;8901;52.088;5.084;2022-08-21T08:31:20;11.32;;;7.40;;
17566;SDS011;8901;52.088;5.084;2022-08-21T08:33:48;16.83;;;8.57;;
17566;SDS011;8901;52.088;5.084;2022-08-21T08:36:15;15.55;;;9.43;;
17566;SDS011;8901;52.088;5.084;2022-08-21T08:38:44;15.05;;;9.00;;
17566;SDS011;8901;52.088;5.084;2022-08-21T08:41:12;15.32;;;8.23;;
17566;SDS011;8901;52.088;5.084;2022-08-21T08:43:42;16.05;;;9.23;;
17566;SDS011;8901;52.088;5.084;2022-08-21T08:46:16;13.13;;;8.07;;
17566;SDS011;8901;52.088;5.084;2022-08-21T08:48:48;11.20;;;8.00;;
17566;SDS011;8901;52.088;5.084;2022-08-21T08:51:19;12.23;;;7.40;;
17566;SDS011;8901;52.088;5.084;2022-08-21T08:53:51;10.40;;;7.28;;
17566;SDS011;8901;52.088;5.084;2022-08-21T08:56:26;9.90;;;8.00;;
17566;SDS011;8901;52.088;5.084;2022-08-21T08:58:56;11.07;;;7.88;;
17566;SDS011;8901;52.088;5.084;2022-08-21T09:01:29;10.07;;;7.78;;
17566;SDS011;8901;52.088;5.084;2022-08-21T09:03:56;10.48;;;8.43;;
17566;SDS011;8901;52.088;5.084;2022-08-21T09:06:34;11.63;;;7.93;;
17566;SDS011;8901;52.088;5.084;2022-08-21T09:09:14;12.90;;;8.32;;
17566;SDS011;8901;52.088;5.084;2022-08-21T09:11:57;13.77;;;8.18;;
17566;SDS011;8901;52.088;5.084;2022-08-21T09:14:31;14.25;;;7.30;;
17566;SDS011;8901;52.088;5.084;2022-08-21T09:17:13;15.48;;;7.88;;
17566;SDS011;8901;52.088;5.084;2022-08-21T09:19:53;10.68;;;6.78;;
17566;SDS011;8901;52.088;5.084;2022-08-21T09:22:31;10.90;;;8.38;;
17566;SDS011;8901;52.088;5.084;2022-08-21T09:25:08;10.30;;;8.07;;
17566;SDS011;8901;52.088;5.084;2022-08-21T09:27:41;15.50;;;8.60;;
17566;SDS011;8901;52.088;5.084;2022-08-21T09:30:08;15.60;;;8.18;;
17566;SDS011;8901;52.088;5.084;2022-08-21T09:32:37;11.90;;;7.97;;
17566;SDS011;8901;52.088;5.084;2022-08-21T09:35:07;13.80;;;8.13;;
17566;SDS011;8901;52.088;5.084;2022-08-21T09:37:45;12.50;;;8.80;;
17566;SDS011;8901;52.088;5.084;2022-08-21T09:40:19;16.83;;;9.38;;
17566;SDS011;8901;52.088;5.084;2022-08-21T09:42:55;11.38;;;7.38;;
17566;SDS011;8901;52.088;5.084;2022-08-21T09:45:33;11.40;;;8.57;;
17566;SDS011;8901;52.088;5.084;2022-08-21T09:48:09;13.70;;;8.80;;
17566;SDS011;8901;52.088;5.084;2022-08-21T09:50:38;12.50;;;9.10;;
17566;SDS011;8901;52.088;5.084;2022-08-21T09:56:00;10.25;;;9.27;;
17566;SDS011;8901;52.088;5.084;2022-08-21T09:58:52;11.10;;;9.30;;
17566;SDS011;8901;52.088;5.084;2022-08-21T10:01:41;13.98;;;9.55;;
17566;SDS011;8901;52.088;5.084;2022-08-21T10:04:11;13.23;;;10.05;;
17566;SDS011;8901;52.088;5.084;2022-08-21T10:09:39;13.98;;;10.60;;
17566;SDS011;8901;52.088;5.084;2022-08-21T10:12:09;11.65;;;10.57;;
17566;SDS011;8901;52.088;5.084;2022-08-21T10:14:44;11.77;;;10.68;;
17566;SDS011;8901;52.088;5.084;2022-08-21T10:17:17;12.05;;;10.88;;
17566;SDS011;8901;52.088;5.084;2022-08-21T10:19:56;13.75;;;11.20;;
17566;SDS011;8901;52.088;5.084;2022-08-21T10:22:32;11.70;;;10.52;;
17566;SDS011;8901;52.088;5.084;2022-08-21T10:28:07;13.30;;;11.90;;
17566;SDS011;8901;52.088;5.084;2022-08-21T10:30:41;13.18;;;11.98;;
17566;SDS011;8901;52.088;5.084;2022-08-21T10:36:39;14.10;;;12.77;;
17566;SDS011;8901;52.088;5.084;2022-08-21T10:39:14;14.95;;;13.68;;
17566;SDS011;8901;52.088;5.084;2022-08-21T10:41:52;13.30;;;12.18;;
17566;SDS011;8901;52.088;5.084;2022-08-21T10:44:37;13.52;;;12.27;;
17566;SDS011;8901;52.088;5.084;2022-08-21T10:47:11;14.80;;;12.98;;
17566;SDS011;8901;52.088;5.084;2022-08-21T10:49:45;14.82;;;13.32;;
17566;SDS011;8901;52.088;5.084;2022-08-21T10:52:25;14.30;;;12.50;;
17566;SDS011;8901;52.088;5.084;2022-08-21T10:55:02;12.90;;;11.80;;
17566;SDS011;8901;52.088;5.084;2022-08-21T10:57:36;16.23;;;14.65;;
17566;SDS011;8901;52.088;5.084;2022-08-21T11:00:08;12.57;;;11.45;;
17566;SDS011;8901;52.088;5.084;2022-08-21T11:02:39;15.32;;;13.90;;
17566;SDS011;8901;52.088;5.084;2022-08-21T11:08:35;14.20;;;12.88;;
17566;SDS011;8901;52.088;5.084;2022-08-21T11:11:08;13.43;;;12.23;;
17566;SDS011;8901;52.088;5.084;2022-08-21T11:13:40;15.02;;;13.75;;
17566;SDS011;8901;52.088;5.084;2022-08-21T11:16:22;15.73;;;14.00;;
17566;SDS011;8901;52.088;5.084;2022-08-21T11:18:55;13.63;;;12.32;;
17566;SDS011;8901;52.088;5.084;2022-08-21T11:21:30;14.70;;;13.27;;
17566;SDS011;8901;52.088;5.084;2022-08-21T11:24:08;15.18;;;13.88;;
17566;SDS011;8901;52.088;5.084;2022-08-21T11:26:50;14.27;;;13.15;;
17566;SDS011;8901;52.088;5.084;2022-08-21T11:29:24;15.20;;;13.65;;
17566;SDS011;8901;52.088;5.084;2022-08-21T11:32:01;16.38;;;14.90;;
17566;SDS011;8901;52.088;5.084;2022-08-21T11:34:39;15.23;;;13.60;;
17566;SDS011;8901;52.088;5.084;2022-08-21T11:37:17;17.05;;;15.55;;
17566;SDS011;8901;52.088;5.084;2022-08-21T11:39:52;15.68;;;14.27;;
17566;SDS011;8901;52.088;5.084;2022-08-21T11:42:31;16.65;;;13.93;;
17566;SDS011;8901;52.088;5.084;2022-08-21T11:45:09;17.75;;;14.25;;
17566;SDS011;8901;52.088;5.084;2022-08-21T11:47:46;15.50;;;14.25;;
17566;SDS011;8901;52.088;5.084;2022-08-21T11:50:21;17.35;;;15.57;;
17566;SDS011;8901;52.088;5.084;2022-08-21T11:52:53;18.02;;;16.42;;
17566;SDS011;8901;52.088;5.084;2022-08-21T11:55:28;16.90;;;15.13;;
17566;SDS011;8901;52.088;5.084;2022-08-21T11:57:59;18.38;;;16.42;;
17566;SDS011;8901;52.088;5.084;2022-08-21T12:00:29;18.48;;;16.75;;
17566;SDS011;8901;52.088;5.084;2022-08-21T12:02:59;18.10;;;16.50;;
17566;SDS011;8901;52.088;5.084;2022-08-21T12:05:37;17.77;;;16.08;;
17566;SDS011;8901;52.088;5.084;2022-08-21T12:08:09;17.23;;;15.75;;
17566;SDS011;8901;52.088;5.084;2022-08-21T12:10:40;17.52;;;16.10;;
17566;SDS011;8901;52.088;5.084;2022-08-21T12:13:22;16.90;;;15.63;;
17566;SDS011;8901;52.088;5.084;2022-08-21T12:15:50;17.85;;;16.35;;
17566;SDS011;8901;52.088;5.084;2022-08-21T12:18:22;18.90;;;17.30;;
17566;SDS011;8901;52.088;5.084;2022-08-21T12:20:58;18.65;;;16.90;;
17566;SDS011;8901;52.088;5.084;2022-08-21T12:23:29;19.67;;;18.20;;
17566;SDS011;8901;52.088;5.084;2022-08-21T12:28:48;19.05;;;17.55;;
17566;SDS011;8901;52.088;5.084;2022-08-21T12:31:20;18.80;;;17.23;;
17566;SDS011;8901;52.088;5.084;2022-08-21T12:33:57;18.58;;;17.17;;
17566;SDS011;8901;52.088;5.084;2022-08-21T12:36:29;20.17;;;18.33;;
17566;SDS011;8901;52.088;5.084;2022-08-21T12:39:04;19.67;;;17.92;;
17566;SDS011;8901;52.088;5.084;2022-08-21T12:41:43;18.63;;;17.02;;
17566;SDS011;8901;52.088;5.084;2022-08-21T12:44:15;16.73;;;15.43;;
17566;SDS011;8901;52.088;5.084;2022-08-21T12:46:48;18.52;;;16.98;;
17566;SDS011;8901;52.088;5.084;2022-08-21T12:49:21;19.20;;;17.40;;
17566;SDS011;8901;52.088;5.084;2022-08-21T12:51:54;18.92;;;17.17;;
17566;SDS011;8901;52.088;5.084;2022-08-21T12:54:26;19.02;;;17.48;;
17566;SDS011;8901;52.088;5.084;2022-08-21T12:56:57;17.92;;;15.93;;
17566;SDS011;8901;52.088;5.084;2022-08-21T12:59:25;17.77;;;16.25;;
17566;SDS011;8901;52.088;5.084;2022-08-21T13:01:53;19.38;;;17.80;;
17566;SDS011;8901;52.088;5.084;2022-08-21T13:07:08;18.17;;;16.50;;
17566;SDS011;8901;52.088;5.084;2022-08-21T13:15:25;18.90;;;17.40;;
17566;SDS011;8901;52.088;5.084;2022-08-21T13:21:16;18.00;;;16.58;;
17566;SDS011;8901;52.088;5.084;2022-08-21T13:23:43;20.27;;;18.77;;
17566;SDS011;8901;52.088;5.084;2022-08-21T13:26:13;20.80;;;19.10;;
17566;SDS011;8901;52.088;5.084;2022-08-21T13:28:41;20.60;;;19.00;;
17566;SDS011;8901;52.088;5.084;2022-08-21T13:31:10;18.77;;;17.35;;
17566;SDS011;8901;52.088;5.084;2022-08-21T13:33:38;19.15;;;17.52;;
17566;SDS011;8901;52.088;5.084;2022-08-21T13:36:08;20.27;;;18.48;;
17566;SDS011;8901;52.088;5.084;2022-08-21T13:38:39;19.70;;;18.10;;
17566;SDS011;8901;52.088;5.084;2022-08-21T13:41:08;23.17;;;21.35;;
17566;SDS011;8901;52.088;5.084;2022-08-21T13:43:44;21.60;;;20.10;;
17566;SDS011;8901;52.088;5.084;2022-08-21T13:46:14;20.13;;;18.48;;
17566;SDS011;8901;52.088;5.084;2022-08-21T13:48:41;22.63;;;20.85;;
17566;SDS011;8901;52.088;5.084;2022-08-21T13:51:09;20.58;;;19.15;;
17566;SDS011;8901;52.088;5.084;2022-08-21T13:53:43;18.90;;;17.40;;
17566;SDS011;8901;52.088;5.084;2022-08-21T13:56:26;19.52;;;18.08;;
17566;SDS011;8901;52.088;5.084;2022-08-21T13:58:55;19.80;;;18.20;;
17566;SDS011;8901;52.088;5.084;2022-08-21T14:01:26;20.30;;;18.65;;
17566;SDS011;8901;52.088;5.084;2022-08-21T14:03:57;20.50;;;19.10;;
17566;SDS011;8901;52.088;5.084;2022-08-21T14:06:27;20.60;;;19.08;;
17566;SDS011;8901;52.088;5.084;2022-08-21T14:08:59;20.02;;;18.63;;
17566;SDS011;8901;52.088;5.084;2022-08-21T14:11:33;20.35;;;18.95;;
17566;SDS011;8901;52.088;5.084;2022-08-21T14:14:19;22.45;;;21.00;;
17566;SDS011;8901;52.088;5.084;2022-08-21T14:16:54;22.45;;;20.35;;
17566;SDS011;8901;52.088;5.084;2022-08-21T14:19:23;23.70;;;21.90;;
17566;SDS011;8901;52.088;5.084;2022-08-21T14:21:52;21.67;;;20.15;;
17566;SDS011;8901;52.088;5.084;2022-08-21T14:24:27;23.33;;;21.13;;
17566;SDS011;8901;52.088;5.084;2022-08-21T14:26:56;22.02;;;20.35;;
17566;SDS011;8901;52.088;5.084;2022-08-21T14:29:31;23.10;;;21.48;;
17566;SDS011;8901;52.088;5.084;2022-08-21T14:32:09;22.17;;;20.50;;
17566;SDS011;8901;52.088;5.084;2022-08-21T14:34:39;23.00;;;21.30;;
17566;SDS011;8901;52.088;5.084;2022-08-21T14:37:06;24.40;;;22.40;;
17566;SDS011;8901;52.088;5.084;2022-08-21T14:39:33;22.80;;;21.10;;
17566;SDS011;8901;52.088;5.084;2022-08-21T14:42:11;21.42;;;19.90;;
17566;SDS011;8901;52.088;5.084;2022-08-21T14:44:39;21.98;;;20.38;;
17566;SDS011;8901;52.088;5.084;2022-08-21T14:47:07;23.45;;;21.85;;
17566;SDS011;8901;52.088;5.084;2022-08-21T14:49:35;21.88;;;20.30;;
17566;SDS011;8901;52.088;5.084;2022-08-21T14:52:02;22.38;;;20.83;;
17566;SDS011;8901;52.088;5.084;2022-08-21T14:54:30;23.63;;;21.80;;
17566;SDS011;8901;52.088;5.084;2022-08-21T14:56:58;22.35;;;20.75;;
17566;SDS011;8901;52.088;5.084;2022-08-21T14:59:27;23.08;;;21.17;;
17566;SDS011;8901;52.088;5.084;2022-08-21T15:01:54;21.83;;;20.35;;
17566;SDS011;8901;52.088;5.084;2022-08-21T15:04:23;22.42;;;20.63;;
17566;SDS011;8901;52.088;5.084;2022-08-21T15:06:50;21.70;;;19.90;;
17566;SDS011;8901;52.088;5.084;2022-08-21T15:09:17;22.30;;;20.90;;
17566;SDS011;8901;52.088;5.084;2022-08-21T15:11:44;23.55;;;21.45;;
17566;SDS011;8901;52.088;5.084;2022-08-21T15:14:15;23.77;;;21.77;;
17566;SDS011;8901;52.088;5.084;2022-08-21T15:16:46;22.75;;;21.25;;
17566;SDS011;8901;52.088;5.084;2022-08-21T15:25:56;22.88;;;21.00;;
17566;SDS011;8901;52.088;5.084;2022-08-21T15:28:23;21.70;;;20.00;;
17566;SDS011;8901;52.088;5.084;2022-08-21T15:30:52;21.25;;;19.77;;